sensor_id;sensor_type;location;lat;lon;timestamp;pressure;altitude;pressure_sealevel;temperature;humidity
13367;BME280;6752;52.612;13.630;2023-05-25T00:03:14;101623.68;;;10.07;100.00
13367;BME280;6752;52.612;13.630;2023-05-25T00:08:16;101615.77;;;10.02;100.00
13367;BME280;6752;52.612;13.630;2023-05-25T00:13:18;101617.04;;;10.02;100.00
13367;BME280;6752;52.612;13.630;2023-05-25T00:18:21;101613.64;;;9.97;100.00
13367;BME280;6752;52.612;13.630;2023-05-25T00:23:23;101616.69;;;9.98;100.00
13367;BME280;6752;52.612;13.630;2023-05-25T00:28:26;101612.05;;;9.95;100.00
13367;BME280;6752;52.612;13.630;2023-05-25T00:33:28;101608.87;;;10.02;100.00
13367;BME280;6752;52.612;13.630;2023-05-25T00:38:30;101606.66;;;10.02;100.00
13367;BME280;6752;52.612;13.630;2023-05-25T00:43:33;101609.70;;;10.03;100.00
13367;BME280;6752;52.612;13.630;2023-05-25T00:48:35;101603.50;;;10.12;100.00
13367;BME280;6752;52.612;13.630;2023-05-25T00:53:37;101608.97;;;10.15;100.00
13367;BME280;6752;52.612;13.630;2023-05-25T00:58:39;101603.19;;;10.00;100.00
13367;BME280;6752;52.612;13.630;2023-05-25T01:03:45;101611.14;;;9.99;100.00
13367;BME280;6752;52.612;13.630;2023-05-25T01:08:54;101598.94;;;9.73;100.00
13367;BME280;6752;52.612;13.630;2023-05-25T01:13:56;101605.26;;;9.70;100.00
13367;BME280;6752;52.612;13.630;2023-05-25T01:18:58;101604.38;;;9.55;100.00
13367;BME280;6752;52.612;13.630;2023-05-25T01:24:05;101607.91;;;9.45;100.00
13367;BME280;6752;52.612;13.630;2023-05-25T01:29:06;101609.29;;;9.38;100.00
13367;BME280;6752;52.612;13.630;2023-05-25T01:34:08;101611.75;;;9.18;100.00
13367;BME280;6752;52.612;13.630;2023-05-25T01:39:11;101620.45;;;9.25;100.00
13367;BME280;6752;52.612;13.630;2023-05-25T01:44:13;101628.68;;;9.17;100.00
13367;BME280;6752;52.612;13.630;2023-05-25T01:54:33;101620.36;;;9.03;100.00
13367;BME280;6752;52.612;13.630;2023-05-25T01:59:32;101616.45;;;8.95;100.00
13367;BME280;6752;52.612;13.630;2023-05-25T02:04:34;101623.77;;;8.87;100.00
13367;BME280;6752;52.612;13.630;2023-05-25T02:09:36;101620.86;;;8.81;100.00
13367;BME280;6752;52.612;13.630;2023-05-25T02:14:39;101611.14;;;8.68;100.00
13367;BME280;6752;52.612;13.630;2023-05-25T02:19:41;101613.90;;;8.71;100.00
13367;BME280;6752;52.612;13.630;2023-05-25T02:24:44;101623.47;;;8.48;100.00
13367;BME280;6752;52.612;13.630;2023-05-25T02:29:46;101635.92;;;8.31;100.00
13367;BME280;6752;52.612;13.630;2023-05-25T02:34:48;101627.06;;;8.37;100.00
13367;BME280;6752;52.612;13.630;2023-05-25T02:39:50;101626.92;;;8.53;100.00
13367;BME280;6752;52.612;13.630;2023-05-25T02:44:53;101620.88;;;8.55;100.00
13367;BME280;6752;52.612;13.630;2023-05-25T02:49:55;101624.58;;;8.58;100.00
13367;BME280;6752;52.612;13.630;2023-05-25T02:54:57;101619.76;;;8.71;100.00
13367;BME280;6752;52.612;13.630;2023-05-25T03:00:00;101622.78;;;8.76;100.00
13367;BME280;6752;52.612;13.630;2023-05-25T03:05:02;101623.53;;;8.78;100.00
13367;BME280;6752;52.612;13.630;2023-05-25T03:10:04;101621.19;;;8.89;100.00
13367;BME280;6752;52.612;13.630;2023-05-25T03:15:06;101611.06;;;8.90;100.00
13367;BME280;6752;52.612;13.630;2023-05-25T03:20:08;101613.03;;;8.89;100.00
13367;BME280;6752;52.612;13.630;2023-05-25T03:25:11;101616.87;;;8.87;100.00
13367;BME280;6752;52.612;13.630;2023-05-25T03:30:13;101625.66;;;9.01;100.00
13367;BME280;6752;52.612;13.630;2023-05-25T03:35:15;101623.72;;;9.13;100.00
13367;BME280;6752;52.612;13.630;2023-05-25T03:40:18;101630.08;;;9.20;100.00
13367;BME280;6752;52.612;13.630;2023-05-25T03:45:20;101629.77;;;9.44;100.00
13367;BME280;6752;52.612;13.630;2023-05-25T03:50:23;101620.23;;;9.59;100.00
13367;BME280;6752;52.612;13.630;2023-05-25T03:55:25;101634.11;;;9.72;100.00
13367;BME280;6752;52.612;13.630;2023-05-25T04:00:27;101640.42;;;9.86;100.00
13367;BME280;6752;52.612;13.630;2023-05-25T04:05:30;101649.47;;;9.97;100.00
13367;BME280;6752;52.612;13.630;2023-05-25T04:10:32;101651.58;;;10.27;100.00
13367;BME280;6752;52.612;13.630;2023-05-25T04:15:35;101654.68;;;10.35;100.00
13367;BME280;6752;52.612;13.630;2023-05-25T04:20:37;101657.38;;;10.67;100.00
13367;BME280;6752;52.612;13.630;2023-05-25T04:25:39;101652.84;;;10.77;100.00
13367;BME280;6752;52.612;13.630;2023-05-25T04:30:42;101661.02;;;10.77;100.00
13367;BME280;6752;52.612;13.630;2023-05-25T04:35:44;101665.59;;;10.87;100.00
13367;BME280;6752;52.612;13.630;2023-05-25T04:40:46;101671.56;;;10.87;100.00
13367;BME280;6752;52.612;13.630;2023-05-25T04:45:49;101672.78;;;10.92;100.00
13367;BME280;6752;52.612;13.630;2023-05-25T04:50:51;101664.08;;;11.30;100.00
13367;BME280;6752;52.612;13.630;2023-05-25T04:55:54;101670.80;;;11.69;100.00
13367;BME280;6752;52.612;13.630;2023-05-25T05:00:56;101668.47;;;11.83;100.00
13367;BME280;6752;52.612;13.630;2023-05-25T05:05:58;101662.88;;;12.21;100.00
13367;BME280;6752;52.612;13.630;2023-05-25T05:11:01;101658.50;;;12.63;100.00
13367;BME280;6752;52.612;13.630;2023-05-25T05:16:03;101661.86;;;12.85;100.00
13367;BME280;6752;52.612;13.630;2023-05-25T05:21:06;101664.88;;;13.19;100.00
13367;BME280;6752;52.612;13.630;2023-05-25T05:26:08;101666.63;;;13.64;100.00
13367;BME280;6752;52.612;13.630;2023-05-25T05:31:10;101681.14;;;13.75;100.00
13367;BME280;6752;52.612;13.630;2023-05-25T05:36:13;101682.53;;;14.60;100.00
13367;BME280;6752;52.612;13.630;2023-05-25T05:41:15;101679.48;;;15.18;100.00
13367;BME280;6752;52.612;13.630;2023-05-25T05:46:18;101685.10;;;15.67;99.47
13367;BME280;6752;52.612;13.630;2023-05-25T05:51:20;101695.14;;;15.82;95.91
13367;BME280;6752;52.612;13.630;2023-05-25T05:56:22;101698.97;;;16.05;89.13
13367;BME280;6752;52.612;13.630;2023-05-25T06:01:25;101706.28;;;16.71;90.12
13367;BME280;6752;52.612;13.630;2023-05-25T06:06:27;101708.88;;;16.98;86.40
13367;BME280;6752;52.612;13.630;2023-05-25T06:11:29;101705.38;;;17.61;82.67
13367;BME280;6752;52.612;13.630;2023-05-25T06:16:31;101700.69;;;17.74;82.60
13367;BME280;6752;52.612;13.630;2023-05-25T06:21:34;101704.52;;;17.35;79.42
13367;BME280;6752;52.612;13.630;2023-05-25T06:26:36;101706.98;;;18.40;77.07
13367;BME280;6752;52.612;13.630;2023-05-25T06:31:38;101701.14;;;19.54;74.69
13367;BME280;6752;52.612;13.630;2023-05-25T06:36:40;101705.61;;;19.13;71.30
13367;BME280;6752;52.612;13.630;2023-05-25T06:41:43;101701.32;;;19.67;68.09
13367;BME280;6752;52.612;13.630;2023-05-25T06:46:45;101707.07;;;21.24;65.19
13367;BME280;6752;52.612;13.630;2023-05-25T06:51:48;101707.32;;;20.56;63.25
13367;BME280;6752;52.612;13.630;2023-05-25T06:56:50;101708.01;;;21.06;60.69
13367;BME280;6752;52.612;13.630;2023-05-25T07:01:52;101719.05;;;21.14;61.68
13367;BME280;6752;52.612;13.630;2023-05-25T07:06:55;101706.42;;;21.78;60.78
13367;BME280;6752;52.612;13.630;2023-05-25T07:11:57;101700.09;;;22.44;56.29
13367;BME280;6752;52.612;13.630;2023-05-25T07:16:59;101703.69;;;22.25;56.30
13367;BME280;6752;52.612;13.630;2023-05-25T07:22:02;101705.27;;;22.62;56.26
13367;BME280;6752;52.612;13.630;2023-05-25T07:27:04;101701.33;;;22.27;56.35
13367;BME280;6752;52.612;13.630;2023-05-25T07:32:07;101707.53;;;23.01;56.72
13367;BME280;6752;52.612;13.630;2023-05-25T07:37:09;101705.95;;;21.73;53.96
13367;BME280;6752;52.612;13.630;2023-05-25T07:42:11;101704.53;;;22.38;50.74
13367;BME280;6752;52.612;13.630;2023-05-25T07:47:14;101707.50;;;23.13;51.35
13367;BME280;6752;52.612;13.630;2023-05-25T07:52:16;101717.67;;;23.19;54.81
13367;BME280;6752;52.612;13.630;2023-05-25T07:57:19;101713.77;;;24.07;51.31
13367;BME280;6752;52.612;13.630;2023-05-25T08:02:21;101708.20;;;24.37;48.49
13367;BME280;6752;52.612;13.630;2023-05-25T08:07:23;101712.83;;;24.02;48.91
13367;BME280;6752;52.612;13.630;2023-05-25T08:12:26;101727.11;;;22.15;52.52
13367;BME280;6752;52.612;13.630;2023-05-25T08:17:28;101719.75;;;23.20;50.88
13367;BME280;6752;52.612;13.630;2023-05-25T08:22:30;101707.53;;;24.03;47.37
13367;BME280;6752;52.612;13.630;2023-05-25T08:27:33;101727.86;;;22.34;50.83
13367;BME280;6752;52.612;13.630;2023-05-25T08:32:35;101733.78;;;21.57;53.14
13367;BME280;6752;52.612;13.630;2023-05-25T08:37:38;101724.45;;;21.78;52.54
13367;BME280;6752;52.612;13.630;2023-05-25T08:42:43;101718.02;;;24.49;49.40
13367;BME280;6752;52.612;13.630;2023-05-25T08:47:45;101715.13;;;24.17;47.53
13367;BME280;6752;52.612;13.630;2023-05-25T08:52:48;101708.76;;;25.12;46.95
13367;BME280;6752;52.612;13.630;2023-05-25T08:57:53;101715.22;;;24.51;46.26
13367;BME280;6752;52.612;13.630;2023-05-25T09:03:12;101715.05;;;24.38;45.92
13367;BME280;6752;52.612;13.630;2023-05-25T09:08:13;101726.62;;;23.63;48.11
13367;BME280;6752;52.612;13.630;2023-05-25T09:13:15;101715.77;;;26.48;45.39
13367;BME280;6752;52.612;13.630;2023-05-25T09:18:18;101724.70;;;23.46;47.77
13367;BME280;6752;52.612;13.630;2023-05-25T09:23:20;101709.58;;;26.20;43.84
13367;BME280;6752;52.612;13.630;2023-05-25T09:28:22;101715.39;;;25.83;42.80
13367;BME280;6752;52.612;13.630;2023-05-25T09:33:25;101726.08;;;25.76;43.65
13367;BME280;6752;52.612;13.630;2023-05-25T09:38:28;101701.47;;;26.68;41.32
13367;BME280;6752;52.612;13.630;2023-05-25T09:43:30;101727.03;;;25.91;47.48
13367;BME280;6752;52.612;13.630;2023-05-25T09:48:32;101712.08;;;28.43;42.18
13367;BME280;6752;52.612;13.630;2023-05-25T09:53:34;101706.25;;;27.76;41.20
13367;BME280;6752;52.612;13.630;2023-05-25T09:58:37;101710.36;;;28.97;39.48
13367;BME280;6752;52.612;13.630;2023-05-25T10:03:46;101706.88;;;28.05;40.65
13367;BME280;6752;52.612;13.630;2023-05-25T10:08:44;101727.76;;;23.97;45.88
13367;BME280;6752;52.612;13.630;2023-05-25T10:13:47;101732.30;;;24.40;45.59
13367;BME280;6752;52.612;13.630;2023-05-25T10:19:35;101729.72;;;25.98;46.44
13367;BME280;6752;52.612;13.630;2023-05-25T10:24:12;101737.34;;;24.94;46.10
13367;BME280;6752;52.612;13.630;2023-05-25T10:29:11;101742.63;;;23.54;49.19
13367;BME280;6752;52.612;13.630;2023-05-25T10:34:14;101742.97;;;25.08;45.45
13367;BME280;6752;52.612;13.630;2023-05-25T10:39:16;101738.22;;;24.50;48.98
13367;BME280;6752;52.612;13.630;2023-05-25T10:44:18;101741.02;;;23.91;49.94
13367;BME280;6752;52.612;13.630;2023-05-25T10:49:33;101732.60;;;25.26;45.70
13367;BME280;6752;52.612;13.630;2023-05-25T10:54:34;101725.37;;;26.86;47.10
13367;BME280;6752;52.612;13.630;2023-05-25T10:59:40;101736.25;;;25.24;45.23
13367;BME280;6752;52.612;13.630;2023-05-25T11:04:42;101735.45;;;24.87;46.96
13367;BME280;6752;52.612;13.630;2023-05-25T11:09:55;101737.05;;;23.64;47.82
13367;BME280;6752;52.612;13.630;2023-05-25T11:15:12;101714.86;;;26.62;44.49
13367;BME280;6752;52.612;13.630;2023-05-25T11:20:20;101723.45;;;25.08;44.63
13367;BME280;6752;52.612;13.630;2023-05-25T11:25:35;101732.60;;;25.52;47.51
13367;BME280;6752;52.612;13.630;2023-05-25T11:30:38;101724.27;;;26.78;43.86
13367;BME280;6752;52.612;13.630;2023-05-25T11:35:39;101731.98;;;25.96;45.22
13367;BME280;6752;52.612;13.630;2023-05-25T11:40:41;101735.02;;;25.06;45.94
13367;BME280;6752;52.612;13.630;2023-05-25T11:45:47;101721.03;;;26.94;43.32
13367;BME280;6752;52.612;13.630;2023-05-25T11:50:46;101727.94;;;25.19;44.71
13367;BME280;6752;52.612;13.630;2023-05-25T11:55:50;101723.59;;;25.87;47.27
13367;BME280;6752;52.612;13.630;2023-05-25T12:00:52;101726.08;;;25.38;45.20
13367;BME280;6752;52.612;13.630;2023-05-25T12:05:54;101711.02;;;26.18;42.48
13367;BME280;6752;52.612;13.630;2023-05-25T12:10:56;101709.10;;;25.94;43.30
13367;BME280;6752;52.612;13.630;2023-05-25T12:15:58;101718.11;;;24.92;44.86
13367;BME280;6752;52.612;13.630;2023-05-25T12:21:00;101716.91;;;24.86;45.91
13367;BME280;6752;52.612;13.630;2023-05-25T12:26:08;101724.03;;;24.19;47.25
13367;BME280;6752;52.612;13.630;2023-05-25T12:31:23;101726.55;;;23.16;48.93
13367;BME280;6752;52.612;13.630;2023-05-25T12:36:41;101729.55;;;23.52;52.89
13367;BME280;6752;52.612;13.630;2023-05-25T12:41:52;101727.70;;;23.77;49.90
13367;BME280;6752;52.612;13.630;2023-05-25T12:46:50;101730.14;;;25.05;49.74
13367;BME280;6752;52.612;13.630;2023-05-25T12:51:55;101731.65;;;25.23;50.41
13367;BME280;6752;52.612;13.630;2023-05-25T12:56:57;101716.75;;;25.21;48.04
13367;BME280;6752;52.612;13.630;2023-05-25T13:02:00;101710.66;;;25.58;47.91
13367;BME280;6752;52.612;13.630;2023-05-25T13:07:02;101709.52;;;24.49;47.78
13367;BME280;6752;52.612;13.630;2023-05-25T13:12:05;101701.70;;;24.52;46.37
13367;BME280;6752;52.612;13.630;2023-05-25T13:17:07;101699.48;;;25.31;46.66
13367;BME280;6752;52.612;13.630;2023-05-25T13:22:09;101701.05;;;24.65;47.64
13367;BME280;6752;52.612;13.630;2023-05-25T13:27:12;101699.77;;;23.97;49.36
13367;BME280;6752;52.612;13.630;2023-05-25T13:32:14;101694.13;;;24.57;47.20
13367;BME280;6752;52.612;13.630;2023-05-25T13:37:17;101695.23;;;23.82;48.45
13367;BME280;6752;52.612;13.630;2023-05-25T13:42:19;101694.60;;;24.00;50.34
13367;BME280;6752;52.612;13.630;2023-05-25T13:47:21;101688.67;;;25.13;49.50
13367;BME280;6752;52.612;13.630;2023-05-25T13:52:24;101685.88;;;25.13;47.01
13367;BME280;6752;52.612;13.630;2023-05-25T13:57:26;101679.81;;;24.32;49.01
13367;BME280;6752;52.612;13.630;2023-05-25T14:02:29;101695.96;;;23.13;51.84
13367;BME280;6752;52.612;13.630;2023-05-25T14:07:31;101705.00;;;21.49;54.98
13367;BME280;6752;52.612;13.630;2023-05-25T14:12:33;101700.81;;;21.70;56.06
13367;BME280;6752;52.612;13.630;2023-05-25T14:17:36;101702.42;;;21.87;56.55
13367;BME280;6752;52.612;13.630;2023-05-25T14:22:38;101695.28;;;22.76;56.38
13367;BME280;6752;52.612;13.630;2023-05-25T14:27:40;101691.01;;;23.60;53.91
13367;BME280;6752;52.612;13.630;2023-05-25T14:32:43;101694.67;;;22.44;55.11
13367;BME280;6752;52.612;13.630;2023-05-25T14:37:45;101691.34;;;22.31;52.77
13367;BME280;6752;52.612;13.630;2023-05-25T14:42:48;101700.58;;;20.93;55.47
13367;BME280;6752;52.612;13.630;2023-05-25T14:47:50;101689.57;;;21.40;55.61
13367;BME280;6752;52.612;13.630;2023-05-25T14:52:52;101700.08;;;21.19;57.16
13367;BME280;6752;52.612;13.630;2023-05-25T14:57:55;101691.23;;;21.04;56.43
13367;BME280;6752;52.612;13.630;2023-05-25T15:02:57;101697.66;;;21.07;58.01
13367;BME280;6752;52.612;13.630;2023-05-25T15:08:00;101693.38;;;20.92;57.56
13367;BME280;6752;52.612;13.630;2023-05-25T15:13:02;101691.63;;;21.02;56.16
13367;BME280;6752;52.612;13.630;2023-05-25T15:18:04;101684.11;;;20.78;58.02
13367;BME280;6752;52.612;13.630;2023-05-25T15:23:06;101674.70;;;21.61;57.95
13367;BME280;6752;52.612;13.630;2023-05-25T15:28:09;101664.63;;;22.05;55.97
13367;BME280;6752;52.612;13.630;2023-05-25T15:33:11;101674.94;;;21.10;58.49
13367;BME280;6752;52.612;13.630;2023-05-25T15:38:13;101671.55;;;21.74;55.51
13367;BME280;6752;52.612;13.630;2023-05-25T15:43:15;101671.45;;;21.77;56.62
13367;BME280;6752;52.612;13.630;2023-05-25T15:48:17;101669.55;;;21.93;56.93
13367;BME280;6752;52.612;13.630;2023-05-25T15:53:19;101668.12;;;21.51;57.00
13367;BME280;6752;52.612;13.630;2023-05-25T15:58:21;101669.88;;;21.73;55.76
13367;BME280;6752;52.612;13.630;2023-05-25T16:03:24;101675.39;;;21.31;56.02
13367;BME280;6752;52.612;13.630;2023-05-25T16:08:26;101682.88;;;21.33;55.14
13367;BME280;6752;52.612;13.630;2023-05-25T16:13:29;101680.17;;;21.25;54.71
13367;BME280;6752;52.612;13.630;2023-05-25T16:18:31;101672.31;;;20.75;56.49
13367;BME280;6752;52.612;13.630;2023-05-25T16:23:32;101671.14;;;21.05;57.07
13367;BME280;6752;52.612;13.630;2023-05-25T16:28:35;101673.03;;;20.60;56.85
13367;BME280;6752;52.612;13.630;2023-05-25T17:02:23;101668.09;;;20.00;59.07
13367;BME280;6752;52.612;13.630;2023-05-25T17:07:25;101665.79;;;19.81;59.69
13367;BME280;6752;52.612;13.630;2023-05-25T17:12:28;101660.39;;;19.80;60.66
13367;BME280;6752;52.612;13.630;2023-05-25T17:17:30;101655.52;;;19.46;61.58
13367;BME280;6752;52.612;13.630;2023-05-25T17:22:32;101658.67;;;19.43;61.48
13367;BME280;6752;52.612;13.630;2023-05-25T17:27:35;101659.56;;;19.10;62.14
13367;BME280;6752;52.612;13.630;2023-05-25T17:33:00;101660.47;;;18.88;62.42
13367;BME280;6752;52.612;13.630;2023-05-25T17:37:52;101659.14;;;18.99;62.90
13367;BME280;6752;52.612;13.630;2023-05-25T17:42:54;101662.03;;;18.98;62.31
13367;BME280;6752;52.612;13.630;2023-05-25T17:47:56;101663.38;;;18.79;64.19
13367;BME280;6752;52.612;13.630;2023-05-25T17:52:59;101677.23;;;18.82;64.08
13367;BME280;6752;52.612;13.630;2023-05-25T17:58:01;101684.59;;;18.62;63.26
13367;BME280;6752;52.612;13.630;2023-05-25T18:03:04;101691.42;;;18.43;64.45
13367;BME280;6752;52.612;13.630;2023-05-25T18:08:06;101687.16;;;18.35;65.58
13367;BME280;6752;52.612;13.630;2023-05-25T18:13:08;101692.05;;;18.02;66.43
13367;BME280;6752;52.612;13.630;2023-05-25T18:18:11;101692.75;;;18.17;66.85
13367;BME280;6752;52.612;13.630;2023-05-25T18:23:13;101692.31;;;17.63;67.86
13367;BME280;6752;52.612;13.630;2023-05-25T18:28:15;101699.10;;;17.46;68.32
13367;BME280;6752;52.612;13.630;2023-05-25T18:33:18;101697.01;;;17.45;68.79
13367;BME280;6752;52.612;13.630;2023-05-25T18:38:20;101701.59;;;17.16;70.69
13367;BME280;6752;52.612;13.630;2023-05-25T18:43:23;101705.41;;;16.97;71.93
13367;BME280;6752;52.612;13.630;2023-05-25T18:48:25;101711.24;;;16.77;72.89
13367;BME280;6752;52.612;13.630;2023-05-25T18:53:27;101709.69;;;16.70;73.64
13367;BME280;6752;52.612;13.630;2023-05-25T18:58:30;101715.05;;;16.55;73.97
13367;BME280;6752;52.612;13.630;2023-05-25T19:03:32;101717.17;;;16.72;73.17
13367;BME280;6752;52.612;13.630;2023-05-25T19:08:35;101718.28;;;16.82;72.26
13367;BME280;6752;52.612;13.630;2023-05-25T19:13:37;101725.33;;;16.48;73.61
13367;BME280;6752;52.612;13.630;2023-05-25T19:18:39;101721.86;;;16.47;72.98
13367;BME280;6752;52.612;13.630;2023-05-25T19:23:42;101732.84;;;16.26;74.18
13367;BME280;6752;52.612;13.630;2023-05-25T19:28:44;101733.16;;;16.03;75.07
13367;BME280;6752;52.612;13.630;2023-05-25T19:33:46;101735.37;;;15.70;77.60
13367;BME280;6752;52.612;13.630;2023-05-25T19:38:49;101734.27;;;15.65;76.78
13367;BME280;6752;52.612;13.630;2023-05-25T19:43:51;101733.23;;;15.42;77.92
13367;BME280;6752;52.612;13.630;2023-05-25T19:48:53;101755.52;;;14.65;83.99
13367;BME280;6752;52.612;13.630;2023-05-25T19:53:56;101755.14;;;14.77;86.05
13367;BME280;6752;52.612;13.630;2023-05-25T19:58:58;101753.23;;;14.77;83.95
13367;BME280;6752;52.612;13.630;2023-05-25T20:04:00;101753.62;;;14.53;86.99
13367;BME280;6752;52.612;13.630;2023-05-25T20:09:02;101755.86;;;14.62;84.17
13367;BME280;6752;52.612;13.630;2023-05-25T20:14:07;101763.59;;;14.15;89.88
13367;BME280;6752;52.612;13.630;2023-05-25T20:19:10;101766.41;;;13.95;91.09
13367;BME280;6752;52.612;13.630;2023-05-25T20:24:12;101778.09;;;14.28;86.05
13367;BME280;6752;52.612;13.630;2023-05-25T20:29:14;101778.47;;;14.35;84.61
13367;BME280;6752;52.612;13.630;2023-05-25T20:34:17;101784.37;;;14.20;82.44
13367;BME280;6752;52.612;13.630;2023-05-25T20:39:19;101782.33;;;13.95;83.34
13367;BME280;6752;52.612;13.630;2023-05-25T20:44:22;101790.16;;;13.89;83.29
13367;BME280;6752;52.612;13.630;2023-05-25T20:49:28;101776.09;;;13.68;84.42
13367;BME280;6752;52.612;13.630;2023-05-25T20:54:26;101781.50;;;13.59;84.58
13367;BME280;6752;52.612;13.630;2023-05-25T20:59:30;101783.53;;;13.38;85.38
13367;BME280;6752;52.612;13.630;2023-05-25T21:04:33;101785.63;;;13.16;86.43
13367;BME280;6752;52.612;13.630;2023-05-25T21:09:35;101785.11;;;13.24;84.35
13367;BME280;6752;52.612;13.630;2023-05-25T21:14:37;101790.47;;;13.14;84.32
13367;BME280;6752;52.612;13.630;2023-05-25T21:19:40;101799.52;;;12.92;86.10
13367;BME280;6752;52.612;13.630;2023-05-25T21:24:42;101799.93;;;12.89;85.47
13367;BME280;6752;52.612;13.630;2023-05-25T21:29:44;101796.88;;;12.78;85.93
13367;BME280;6752;52.612;13.630;2023-05-25T21:34:47;101804.42;;;12.69;87.50
13367;BME280;6752;52.612;13.630;2023-05-25T21:39:49;101803.15;;;12.62;88.67
13367;BME280;6752;52.612;13.630;2023-05-25T21:44:51;101803.05;;;12.69;89.52
13367;BME280;6752;52.612;13.630;2023-05-25T21:49:56;101806.69;;;12.52;92.51
13367;BME280;6752;52.612;13.630;2023-05-25T21:54:58;101810.72;;;12.56;92.00
13367;BME280;6752;52.612;13.630;2023-05-25T22:00:04;101810.36;;;12.49;93.48
13367;BME280;6752;52.612;13.630;2023-05-25T22:05:03;101818.67;;;12.48;95.95
13367;BME280;6752;52.612;13.630;2023-05-25T22:10:06;101823.09;;;12.52;96.65
13367;BME280;6752;52.612;13.630;2023-05-25T22:15:08;101823.41;;;12.50;96.20
13367;BME280;6752;52.612;13.630;2023-05-25T22:20:10;101823.69;;;12.35;99.66
13367;BME280;6752;52.612;13.630;2023-05-25T22:25:13;101819.61;;;12.44;100.00
13367;BME280;6752;52.612;13.630;2023-05-25T22:30:15;101821.92;;;12.44;100.00
13367;BME280;6752;52.612;13.630;2023-05-25T22:35:18;101828.33;;;12.41;100.00
13367;BME280;6752;52.612;13.630;2023-05-25T22:40:20;101833.18;;;12.45;99.83
13367;BME280;6752;52.612;13.630;2023-05-25T22:45:22;101830.22;;;12.37;99.42
13367;BME280;6752;52.612;13.630;2023-05-25T22:50:25;101832.66;;;12.46;96.38
13367;BME280;6752;52.612;13.630;2023-05-25T22:55:27;101836.20;;;12.33;95.98
13367;BME280;6752;52.612;13.630;2023-05-25T23:00:30;101841.48;;;12.17;95.96
13367;BME280;6752;52.612;13.630;2023-05-25T23:05:32;101840.78;;;12.05;96.50
13367;BME280;6752;52.612;13.630;2023-05-25T23:10:34;101841.70;;;11.98;94.75
13367;BME280;6752;52.612;13.630;2023-05-25T23:15:36;101836.75;;;11.81;94.45
13367;BME280;6752;52.612;13.630;2023-05-25T23:20:38;101846.32;;;11.14;100.00
13367;BME280;6752;52.612;13.630;2023-05-25T23:25:41;101843.73;;;11.45;100.00
13367;BME280;6752;52.612;13.630;2023-05-25T23:30:43;101843.47;;;11.53;96.77
13367;BME280;6752;52.612;13.630;2023-05-25T23:35:45;101838.75;;;11.37;94.49
13367;BME280;6752;52.612;13.630;2023-05-25T23:40:48;101832.15;;;11.29;94.04
13367;BME280;6752;52.612;13.630;2023-05-25T23:45:50;101838.88;;;11.15;94.39
13367;BME280;6752;52.612;13.630;2023-05-25T23:50:52;101838.88;;;10.94;94.91
13367;BME280;6752;52.612;13.630;2023-05-25T23:55:55;101836.31;;;10.60;97.25
